MSC Florentina — HPFH — position and weather

sailwx.info

Track history (hours):
 
Tides and Currents Weather Stations Pressure Air Temp Water Temp Dewpoint Dewpoint Depression Visibility Wind Speed Wind Dir Waves Ship Positions

MSC Florentina

Last reported at 2017-Mar-30 20:29 UTC. Time now 2017-Mar-30 22:37 UTC.
Position N 36°49' W 075°46'.

Length 300 m; draft 11.3 m.

Type: Ship (hazmat cat A). MMSI: 352870000.

Date/timePositionNaut miles runAvg speedWind from/ knotsBaromVisibWave heightAir tempDewpointWater temp
2017-Mar-30 20:29N 36°49' W 075°46'9 9.7
2017-Mar-30 19:33N 36°54' W 075°55'1312.6
2017-Mar-30 18:33N 37°04' W 076°06'6115.4
2017-Mar-30 14:33N 38°05' W 076°13'2118.6
2017-Mar-30 13:26N 38°25' W 076°21'1917.4
2017-Mar-30 12:21N 38°44' W 076°26'1517.0
2017-Mar-30 11:27N 38°59' W 076°23'1011.5
2017-Mar-30 10:33N 39°09' W 076°25'9 9.4
2017-Mar-30 09:34N 39°15' W 076°34'1 0.7
2017-Mar-30 08:33N 39°15' W 076°33'0 0.0
2017-Mar-30 07:33N 39°15' W 076°33'0 0.0
2017-Mar-30 06:33N 39°15' W 076°33'0 0.0
2017-Mar-30 05:33N 39°15' W 076°33'0 0.0
2017-Mar-30 04:33N 39°15' W 076°33'0 0.0
2017-Mar-30 03:33N 39°15' W 076°33'0 0.0
2017-Mar-30 02:33N 39°15' W 076°33'0 0.0
2017-Mar-30 01:33N 39°15' W 076°33'0 0.0
2017-Mar-30 00:33N 39°15' W 076°33'0 0.0
2017-Mar-29 23:33N 39°15' W 076°33'0 0.0
2017-Mar-29 22:33N 39°15' W 076°33'1 0.7
2017-Mar-29 21:33N 39°15' W 076°32'8 7.9
2017-Mar-29 20:33N 39°09' W 076°25'1010.2
2017-Mar-29 19:34N 38°59' W 076°23'1211.9
2017-Mar-29 18:33N 38°47' W 076°25'3215.2
2017-Mar-29 16:28N 38°16' W 076°17'1717.3
2017-Mar-29 15:29N 37°60' W 076°12'4915.1
2017-Mar-29 12:15N 37°11' W 076°09'1116.1
2017-Mar-29 11:33N 37°01' W 076°03'1111.0
2017-Mar-29 10:34N 36°53' W 075°53'18315.0
2017-Mar-28 22:20N 39°32' W 073°56'1518.7
2017-Mar-28 21:33N 39°46' W 073°52'3115.2
2017-Mar-28 19:33N 40°17' W 073°49'10 9.7
2017-Mar-28 18:32N 40°27' W 073°51'1111.3
2017-Mar-28 17:33N 40°34' W 074°02'8 7.6
2017-Mar-28 16:33N 40°39' W 074°09'2 2.1
2017-Mar-28 15:31N 40°41' W 074°09'0 0.0
2017-Mar-28 14:31N 40°41' W 074°09'0 0.0
2017-Mar-28 13:28N 40°41' W 074°09'0 0.0
2017-Mar-28 12:31N 40°41' W 074°09'0 0.0
2017-Mar-28 11:28N 40°41' W 074°09'0 0.0
2017-Mar-28 10:30N 40°41' W 074°09'0 0.0
2017-Mar-28 09:33N 40°41' W 074°09'0 0.0
2017-Mar-28 08:33N 40°41' W 074°09'0 0.0
2017-Mar-28 07:33N 40°41' W 074°09'0 0.0
2017-Mar-28 06:33N 40°41' W 074°09'0 0.0
2017-Mar-28 05:33N 40°41' W 074°09'0 0.0
2017-Mar-28 04:33N 40°41' W 074°09'0 0.0
2017-Mar-28 03:33N 40°41' W 074°09'0 0.0
2017-Mar-28 02:33N 40°41' W 074°09'0 0.0
2017-Mar-28 01:33N 40°41' W 074°09'0 0.0
2017-Mar-28 00:15N 40°41' W 074°09'0 0.0
2017-Mar-27 23:33N 40°41' W 074°09'0 0.0
2017-Mar-27 22:33N 40°41' W 074°09'0 0.0
2017-Mar-27 21:33N 40°41' W 074°09'0 0.0
2017-Mar-27 20:33N 40°41' W 074°09'0 0.0
2017-Mar-27 19:27N 40°41' W 074°09'0 0.0
2017-Mar-27 18:33N 40°41' W 074°09'0 0.0
2017-Mar-27 17:33N 40°41' W 074°09'0 0.0
2017-Mar-27 16:33N 40°41' W 074°09'0 0.0
2017-Mar-27 15:27N 40°41' W 074°09'0 0.0
2017-Mar-27 14:33N 40°41' W 074°09'0 0.0
2017-Mar-27 13:30N 40°41' W 074°09'0 0.0
2017-Mar-27 12:30N 40°41' W 074°09'0 0.0
2017-Mar-27 11:33N 40°41' W 074°09'0 0.0
2017-Mar-27 10:33N 40°41' W 074°09'2 1.7
2017-Mar-27 09:33N 40°39' W 074°09'5 5.0
2017-Mar-27 08:33N 40°37' W 074°03'1110.5
2017-Mar-27 07:33N 40°29' W 073°54'7 6.5
2017-Mar-27 06:33N 40°25' W 073°47'7 6.8
2017-Mar-27 05:32N 40°18' W 073°46'10 7.3
2017-Mar-27 04:13N 40°09' W 073°45'5 7.4
2017-Mar-27 03:33N 40°04' W 073°44'8 7.5
2017-Mar-27 02:32N 39°56' W 073°43'8 7.7
2017-Mar-27 01:28N 39°48' W 073°42'8 7.4
2017-Mar-27 00:25N 39°40' W 073°43'7 7.2
2017-Mar-26 23:28N 39°34' W 073°47'7 7.4
2017-Mar-26 22:33N 39°28' W 073°50'183 6.8
2017-Mar-25 19:24N 36°48' W 075°45'6 6.8
2017-Mar-25 18:28N 36°51' W 075°52'7 8.0
2017-Mar-25 17:33N 36°56' W 075°59'1312.7
2017-Mar-25 16:32N 37°00' W 076°14'9 9.5
2017-Mar-25 15:33N 36°53' W 076°20'1 0.5
2017-Mar-25 14:33N 36°52' W 076°21'0 0.0
2017-Mar-25 13:33N 36°52' W 076°21'0 0.0
2017-Mar-25 12:33N 36°52' W 076°21'0 0.0
2017-Mar-25 11:33N 36°52' W 076°21'0 0.0
2017-Mar-25 10:33N 36°52' W 076°21'0 0.0
2017-Mar-25 09:33N 36°52' W 076°21'0 0.0
2017-Mar-25 08:33N 36°52' W 076°21'0 0.0
2017-Mar-25 07:33N 36°52' W 076°21'0 0.0
2017-Mar-25 06:33N 36°52' W 076°21'0 0.0
2017-Mar-25 05:33N 36°52' W 076°21'0 0.0
2017-Mar-25 04:33N 36°52' W 076°21'0 0.0
2017-Mar-25 03:33N 36°52' W 076°21'0 0.0
2017-Mar-25 02:30N 36°52' W 076°21'0 0.0
2017-Mar-25 01:33N 36°52' W 076°21'0 0.0
2017-Mar-25 00:33N 36°52' W 076°21'0 0.0
2017-Mar-24 23:33N 36°52' W 076°21'0 0.0
2017-Mar-24 22:33N 36°52' W 076°21'0 0.2
2017-Mar-24 21:34N 36°53' W 076°21'6 5.8
2017-Mar-24 20:33N 36°58' W 076°20'1414.4
2017-Mar-24 19:34N 36°57' W 076°02'10 9.8
2017-Mar-24 18:33N 36°52' W 075°52'10 9.4
2017-Mar-24 17:31N 36°47' W 075°42'  
2017-Mar-22 09:26N 27°10' W 079°53'1415.5
2017-Mar-22 08:33N 26°56' W 079°53'1514.6
2017-Mar-22 07:33N 26°42' W 079°54'1414.1
2017-Mar-22 06:33N 26°28' W 079°55'1514.7
2017-Mar-22 05:33N 26°13' W 079°58'1111.3
2017-Mar-22 04:34N 26°06' W 080°07'1 1.4
2017-Mar-22 03:33N 26°04' W 080°07'0 0.0
2017-Mar-22 02:33N 26°04' W 080°07'0 0.0
2017-Mar-22 01:33N 26°04' W 080°07'0 0.0
2017-Mar-22 00:33N 26°04' W 080°07'0 0.0
2017-Mar-21 23:33N 26°04' W 080°07'0 0.0
2017-Mar-21 22:33N 26°04' W 080°07'0 0.0
2017-Mar-21 21:33N 26°04' W 080°07'0 0.0
2017-Mar-21 20:33N 26°04' W 080°07'0 0.0
2017-Mar-21 19:33N 26°04' W 080°07'0 0.0
2017-Mar-21 18:33N 26°04' W 080°07'0 0.0
2017-Mar-21 17:33N 26°04' W 080°07'1 0.6
2017-Mar-21 16:33N 26°05' W 080°07'5 5.3
2017-Mar-21 15:33N 26°06' W 080°01'7 7.0
2017-Mar-21 14:33N 26°10' W 079°55'8 7.6
2017-Mar-21 13:33N 26°14' W 079°47'2 2.5
2017-Mar-21 12:33N 26°11' W 079°48'2 2.4
2017-Mar-21 11:33N 26°09' W 079°49'2 2.4
2017-Mar-21 10:33N 26°07' W 079°49'2 2.4
2017-Mar-21 09:33N 26°04' W 079°50'3 2.5
2017-Mar-21 08:33N 26°02' W 079°50'2 2.5
2017-Mar-21 07:33N 25°59' W 079°51'3 2.7
2017-Mar-21 06:33N 25°57' W 079°51'3 3.0
2017-Mar-21 05:33N 25°54' W 079°50'1313.0
2017-Mar-21 04:33N 25°44' W 079°41'  
Track history (hours):
 
Tides and Currents Weather Stations Pressure Air Temp Water Temp Dewpoint Dewpoint Depression Visibility Wind Speed Wind Dir Waves Ship Positions

MSC Florentina

Last reported at 2017-Mar-30 20:29 UTC. Time now 2017-Mar-30 22:37 UTC.
Position N 36°49' W 075°46'.

Length 300 m; draft 11.3 m.

Type: Ship (hazmat cat A). MMSI: 352870000.

Date/timePositionNaut miles runAvg speedWind from/ knotsBaromVisibWave heightAir tempDewpointWater temp
2017-Mar-30 20:29N 36°49' W 075°46'9 9.7
2017-Mar-30 19:33N 36°54' W 075°55'1312.6
2017-Mar-30 18:33N 37°04' W 076°06'6115.4
2017-Mar-30 14:33N 38°05' W 076°13'2118.6
2017-Mar-30 13:26N 38°25' W 076°21'1917.4
2017-Mar-30 12:21N 38°44' W 076°26'1517.0
2017-Mar-30 11:27N 38°59' W 076°23'1011.5
2017-Mar-30 10:33N 39°09' W 076°25'9 9.4
2017-Mar-30 09:34N 39°15' W 076°34'1 0.7
2017-Mar-30 08:33N 39°15' W 076°33'0 0.0
2017-Mar-30 07:33N 39°15' W 076°33'0 0.0
2017-Mar-30 06:33N 39°15' W 076°33'0 0.0
2017-Mar-30 05:33N 39°15' W 076°33'0 0.0
2017-Mar-30 04:33N 39°15' W 076°33'0 0.0
2017-Mar-30 03:33N 39°15' W 076°33'0 0.0
2017-Mar-30 02:33N 39°15' W 076°33'0 0.0
2017-Mar-30 01:33N 39°15' W 076°33'0 0.0
2017-Mar-30 00:33N 39°15' W 076°33'0 0.0
2017-Mar-29 23:33N 39°15' W 076°33'0 0.0
2017-Mar-29 22:33N 39°15' W 076°33'1 0.7
2017-Mar-29 21:33N 39°15' W 076°32'8 7.9
2017-Mar-29 20:33N 39°09' W 076°25'1010.2
2017-Mar-29 19:34N 38°59' W 076°23'1211.9
2017-Mar-29 18:33N 38°47' W 076°25'3215.2
2017-Mar-29 16:28N 38°16' W 076°17'1717.3
2017-Mar-29 15:29N 37°60' W 076°12'4915.1
2017-Mar-29 12:15N 37°11' W 076°09'1116.1
2017-Mar-29 11:33N 37°01' W 076°03'1111.0
2017-Mar-29 10:34N 36°53' W 075°53'18315.0
2017-Mar-28 22:20N 39°32' W 073°56'1518.7
2017-Mar-28 21:33N 39°46' W 073°52'3115.2
2017-Mar-28 19:33N 40°17' W 073°49'10 9.7
2017-Mar-28 18:32N 40°27' W 073°51'1111.3
2017-Mar-28 17:33N 40°34' W 074°02'8 7.6
2017-Mar-28 16:33N 40°39' W 074°09'2 2.1
2017-Mar-28 15:31N 40°41' W 074°09'0 0.0
2017-Mar-28 14:31N 40°41' W 074°09'0 0.0
2017-Mar-28 13:28N 40°41' W 074°09'0 0.0
2017-Mar-28 12:31N 40°41' W 074°09'0 0.0
2017-Mar-28 11:28N 40°41' W 074°09'0 0.0
2017-Mar-28 10:30N 40°41' W 074°09'0 0.0
2017-Mar-28 09:33N 40°41' W 074°09'0 0.0
2017-Mar-28 08:33N 40°41' W 074°09'0 0.0
2017-Mar-28 07:33N 40°41' W 074°09'0 0.0
2017-Mar-28 06:33N 40°41' W 074°09'0 0.0
2017-Mar-28 05:33N 40°41' W 074°09'0 0.0
2017-Mar-28 04:33N 40°41' W 074°09'0 0.0
2017-Mar-28 03:33N 40°41' W 074°09'0 0.0
2017-Mar-28 02:33N 40°41' W 074°09'0 0.0
2017-Mar-28 01:33N 40°41' W 074°09'0 0.0
2017-Mar-28 00:15N 40°41' W 074°09'0 0.0
2017-Mar-27 23:33N 40°41' W 074°09'0 0.0
2017-Mar-27 22:33N 40°41' W 074°09'0 0.0
2017-Mar-27 21:33N 40°41' W 074°09'0 0.0
2017-Mar-27 20:33N 40°41' W 074°09'0 0.0
2017-Mar-27 19:27N 40°41' W 074°09'0 0.0
2017-Mar-27 18:33N 40°41' W 074°09'0 0.0
2017-Mar-27 17:33N 40°41' W 074°09'0 0.0
2017-Mar-27 16:33N 40°41' W 074°09'0 0.0
2017-Mar-27 15:27N 40°41' W 074°09'0 0.0
2017-Mar-27 14:33N 40°41' W 074°09'0 0.0
2017-Mar-27 13:30N 40°41' W 074°09'0 0.0
2017-Mar-27 12:30N 40°41' W 074°09'0 0.0
2017-Mar-27 11:33N 40°41' W 074°09'0 0.0
2017-Mar-27 10:33N 40°41' W 074°09'2 1.7
2017-Mar-27 09:33N 40°39' W 074°09'5 5.0
2017-Mar-27 08:33N 40°37' W 074°03'1110.5
2017-Mar-27 07:33N 40°29' W 073°54'7 6.5
2017-Mar-27 06:33N 40°25' W 073°47'7 6.8
2017-Mar-27 05:32N 40°18' W 073°46'10 7.3
2017-Mar-27 04:13N 40°09' W 073°45'5 7.4
2017-Mar-27 03:33N 40°04' W 073°44'8 7.5
2017-Mar-27 02:32N 39°56' W 073°43'8 7.7
2017-Mar-27 01:28N 39°48' W 073°42'8 7.4
2017-Mar-27 00:25N 39°40' W 073°43'7 7.2
2017-Mar-26 23:28N 39°34' W 073°47'7 7.4
2017-Mar-26 22:33N 39°28' W 073°50'183 6.8
2017-Mar-25 19:24N 36°48' W 075°45'6 6.8
2017-Mar-25 18:28N 36°51' W 075°52'7 8.0
2017-Mar-25 17:33N 36°56' W 075°59'1312.7
2017-Mar-25 16:32N 37°00' W 076°14'9 9.5
2017-Mar-25 15:33N 36°53' W 076°20'1 0.5
2017-Mar-25 14:33N 36°52' W 076°21'0 0.0
2017-Mar-25 13:33N 36°52' W 076°21'0 0.0
2017-Mar-25 12:33N 36°52' W 076°21'0 0.0
2017-Mar-25 11:33N 36°52' W 076°21'0 0.0
2017-Mar-25 10:33N 36°52' W 076°21'0 0.0
2017-Mar-25 09:33N 36°52' W 076°21'0 0.0
2017-Mar-25 08:33N 36°52' W 076°21'0 0.0
2017-Mar-25 07:33N 36°52' W 076°21'0 0.0
2017-Mar-25 06:33N 36°52' W 076°21'0 0.0
2017-Mar-25 05:33N 36°52' W 076°21'0 0.0
2017-Mar-25 04:33N 36°52' W 076°21'0 0.0
2017-Mar-25 03:33N 36°52' W 076°21'0 0.0
2017-Mar-25 02:30N 36°52' W 076°21'0 0.0
2017-Mar-25 01:33N 36°52' W 076°21'0 0.0
2017-Mar-25 00:33N 36°52' W 076°21'0 0.0
2017-Mar-24 23:33N 36°52' W 076°21'0 0.0
2017-Mar-24 22:33N 36°52' W 076°21'0 0.2
2017-Mar-24 21:34N 36°53' W 076°21'6 5.8
2017-Mar-24 20:33N 36°58' W 076°20'1414.4
2017-Mar-24 19:34N 36°57' W 076°02'10 9.8
2017-Mar-24 18:33N 36°52' W 075°52'10 9.4
2017-Mar-24 17:31N 36°47' W 075°42'  
2017-Mar-22 09:26N 27°10' W 079°53'1415.5
2017-Mar-22 08:33N 26°56' W 079°53'1514.6
2017-Mar-22 07:33N 26°42' W 079°54'1414.1
2017-Mar-22 06:33N 26°28' W 079°55'1514.7
2017-Mar-22 05:33N 26°13' W 079°58'1111.3
2017-Mar-22 04:34N 26°06' W 080°07'1 1.4
2017-Mar-22 03:33N 26°04' W 080°07'0 0.0
2017-Mar-22 02:33N 26°04' W 080°07'0 0.0
2017-Mar-22 01:33N 26°04' W 080°07'0 0.0
2017-Mar-22 00:33N 26°04' W 080°07'0 0.0
2017-Mar-21 23:33N 26°04' W 080°07'0 0.0
2017-Mar-21 22:33N 26°04' W 080°07'0 0.0
2017-Mar-21 21:33N 26°04' W 080°07'0 0.0
2017-Mar-21 20:33N 26°04' W 080°07'0 0.0
2017-Mar-21 19:33N 26°04' W 080°07'0 0.0
2017-Mar-21 18:33N 26°04' W 080°07'0 0.0
2017-Mar-21 17:33N 26°04' W 080°07'1 0.6
2017-Mar-21 16:33N 26°05' W 080°07'5 5.3
2017-Mar-21 15:33N 26°06' W 080°01'7 7.0
2017-Mar-21 14:33N 26°10' W 079°55'8 7.6
2017-Mar-21 13:33N 26°14' W 079°47'2 2.5
2017-Mar-21 12:33N 26°11' W 079°48'2 2.4
2017-Mar-21 11:33N 26°09' W 079°49'2 2.4
2017-Mar-21 10:33N 26°07' W 079°49'2 2.4
2017-Mar-21 09:33N 26°04' W 079°50'3 2.5
2017-Mar-21 08:33N 26°02' W 079°50'2 2.5
2017-Mar-21 07:33N 25°59' W 079°51'3 2.7
2017-Mar-21 06:33N 25°57' W 079°51'3 3.0
2017-Mar-21 05:33N 25°54' W 079°50'1313.0
2017-Mar-21 04:33N 25°44' W 079°41'  

Dump ship's entire track history